createdAt,value
2022-08-08T00:01:07.862Z,28.27
2022-08-08T00:04:16.358Z,28.28
2022-08-08T00:07:13.662Z,28.22
2022-08-08T00:10:28.551Z,28.20
2022-08-08T00:14:17.331Z,28.16
2022-08-08T00:16:39.223Z,28.17
2022-08-08T00:19:34.067Z,28.12
2022-08-08T00:22:49.261Z,28.13
2022-08-08T00:25:44.763Z,28.10
2022-08-08T00:28:44.276Z,28.09
2022-08-08T00:32:20.362Z,28.04
2022-08-08T00:35:15.378Z,27.96
2022-08-08T00:38:44.388Z,27.91
2022-08-08T00:42:08.934Z,27.84
2022-08-08T00:45:27.059Z,27.81
2022-08-08T00:48:33.889Z,27.77
2022-08-08T00:51:51.048Z,27.74
2022-08-08T00:55:08.855Z,27.72
2022-08-08T00:58:18.559Z,27.75
2022-08-08T01:01:29.479Z,27.76
2022-08-08T01:05:01.699Z,27.76
2022-08-08T01:07:56.895Z,27.81
2022-08-08T01:11:16.093Z,27.83
2022-08-08T01:14:53.623Z,27.82
2022-08-08T01:18:04.205Z,27.83
2022-08-08T01:21:02.963Z,27.83
2022-08-08T01:24:17.263Z,27.81
2022-08-08T01:27:21.336Z,27.83
2022-08-08T01:30:27.974Z,27.84
2022-08-08T01:34:00.322Z,27.84
2022-08-08T01:37:17.416Z,27.81
2022-08-08T01:40:28.114Z,27.81
2022-08-08T01:43:58.039Z,27.80
2022-08-08T01:48:16.766Z,27.76
2022-08-08T01:51:29.754Z,27.75
2022-08-08T01:55:26.172Z,27.74
2022-08-08T01:58:11.229Z,27.71
2022-08-08T02:01:05.136Z,27.75
2022-08-08T02:04:17.484Z,27.73
2022-08-08T02:07:20.260Z,27.71
2022-08-08T02:10:12.010Z,27.66
2022-08-08T02:13:05.773Z,27.64
2022-08-08T02:16:03.072Z,27.67
2022-08-08T02:19:26.625Z,27.68
2022-08-08T02:22:34.010Z,27.65
2022-08-08T02:26:16.650Z,27.65
2022-08-08T02:29:35.831Z,27.67
2022-08-08T02:33:06.278Z,27.64
2022-08-08T02:36:05.272Z,27.67
2022-08-08T02:39:41.008Z,27.64
2022-08-08T02:44:42.553Z,27.61
2022-08-08T02:46:28.068Z,27.62
2022-08-08T02:49:51.988Z,27.61
2022-08-08T02:53:12.520Z,27.60
2022-08-08T02:56:30.867Z,27.53
2022-08-08T02:59:25.866Z,27.56
2022-08-08T03:02:36.848Z,27.54
2022-08-08T03:05:46.235Z,27.50
2022-08-08T03:08:59.381Z,27.49
2022-08-08T03:12:36.638Z,27.45
2022-08-08T03:16:00.660Z,27.45
2022-08-08T03:19:35.108Z,27.41
2022-08-08T03:22:56.173Z,27.34
2022-08-08T03:25:51.897Z,27.36
2022-08-08T03:28:51.688Z,27.34
2022-08-08T03:32:15.618Z,27.25
2022-08-08T03:35:09.452Z,27.25
2022-08-08T03:38:54.845Z,27.26
2022-08-08T03:42:12.390Z,27.26
2022-08-08T03:44:38.368Z,27.26
2022-08-08T03:47:27.805Z,27.26
2022-08-08T03:50:30.432Z,27.28
2022-08-08T03:53:37.897Z,27.26
2022-08-08T03:56:33.276Z,27.26
2022-08-08T03:59:29.654Z,27.23
2022-08-08T04:02:33.047Z,27.24
2022-08-08T04:05:35.275Z,27.23
2022-08-08T04:08:35.973Z,27.19
2022-08-08T04:11:59.096Z,27.08
2022-08-08T04:15:00.758Z,26.97
2022-08-08T04:17:58.896Z,27.22
2022-08-08T04:20:47.639Z,27.22
2022-08-08T04:24:12.184Z,27.19
2022-08-08T04:26:58.219Z,27.19
2022-08-08T04:29:55.367Z,27.23
2022-08-08T04:32:49.963Z,27.23
2022-08-08T04:35:40.516Z,27.21
2022-08-08T04:38:42.781Z,27.21
2022-08-08T04:41:35.769Z,27.24
2022-08-08T04:44:26.930Z,27.25
2022-08-08T04:47:13.876Z,27.25
2022-08-08T04:50:04.510Z,27.27
2022-08-08T04:53:05.241Z,27.30
2022-08-08T04:56:02.352Z,27.26
2022-08-08T04:58:52.185Z,27.28
2022-08-08T05:01:48.762Z,27.29
2022-08-08T05:04:37.455Z,27.30
2022-08-08T05:07:24.628Z,27.32
2022-08-08T05:10:12.282Z,27.32
2022-08-08T05:13:02.011Z,27.29
2022-08-08T05:16:52.271Z,27.24
2022-08-08T05:18:57.967Z,27.24
2022-08-08T05:21:59.974Z,27.25
2022-08-08T05:24:56.295Z,27.24
2022-08-08T05:27:44.458Z,27.24
2022-08-08T05:30:33.481Z,27.22
2022-08-08T05:33:21.053Z,27.20
2022-08-08T05:36:10.097Z,27.23
2022-08-08T05:39:14.553Z,27.25
2022-08-08T05:42:01.053Z,27.28
2022-08-08T05:44:51.779Z,27.23
2022-08-08T05:47:41.687Z,27.30
2022-08-08T05:50:47.797Z,27.28
2022-08-08T05:54:25.469Z,27.30
2022-08-08T05:56:57.488Z,27.26
2022-08-08T06:00:19.850Z,27.32
2022-08-08T06:03:25.435Z,27.35
2022-08-08T06:06:23.394Z,27.32
2022-08-08T06:10:00.004Z,27.38
2022-08-08T06:12:34.106Z,27.41
2022-08-08T06:20:37.155Z,26.77
2022-08-08T06:23:52.618Z,26.67
2022-08-08T06:26:45.295Z,26.54
2022-08-08T06:29:59.217Z,26.46
2022-08-08T06:32:56.410Z,26.37
2022-08-08T06:36:09.196Z,26.35
2022-08-08T06:38:56.411Z,26.34
2022-08-08T06:41:53.287Z,26.33
2022-08-08T06:44:42.556Z,26.33
2022-08-08T06:47:33.431Z,26.29
2022-08-08T06:50:31.778Z,26.36
2022-08-08T06:53:22.378Z,26.36
2022-08-08T06:56:16.662Z,26.43
2022-08-08T06:59:09.857Z,26.47
2022-08-08T07:02:26.338Z,26.55
2022-08-08T07:05:20.385Z,26.60
2022-08-08T07:08:18.407Z,26.62
2022-08-08T07:11:09.766Z,26.66
2022-08-08T07:14:16.182Z,26.74
2022-08-08T07:17:09.177Z,26.75
2022-08-08T07:20:11.201Z,26.80
2022-08-08T07:24:01.726Z,26.87
2022-08-08T07:27:00.510Z,26.97
2022-08-08T07:29:59.563Z,27.03
2022-08-08T07:32:54.744Z,27.13
2022-08-08T07:35:48.593Z,27.20
2022-08-08T07:38:38.196Z,27.28
2022-08-08T07:41:29.391Z,27.33
2022-08-08T07:44:43.509Z,27.39
2022-08-08T07:47:38.333Z,27.45
2022-08-08T07:50:26.645Z,27.46
2022-08-08T07:54:01.519Z,27.52
2022-08-08T07:57:36.985Z,27.58
2022-08-08T08:00:44.012Z,27.62
2022-08-08T08:03:47.480Z,27.69
2022-08-08T08:06:38.642Z,27.72
2022-08-08T08:09:48.420Z,27.75
2022-08-08T08:12:43.331Z,27.79
2022-08-08T08:15:33.782Z,27.84
2022-08-08T08:18:31.769Z,27.88
2022-08-08T08:21:19.692Z,27.93
2022-08-08T08:24:07.262Z,27.94
2022-08-08T08:26:57.417Z,27.95
2022-08-08T08:29:43.517Z,28.00
2022-08-08T08:32:36.263Z,28.00
2022-08-08T08:35:29.734Z,28.07
2022-08-08T08:38:35.351Z,28.06
2022-08-08T08:41:31.003Z,28.18
2022-08-08T08:44:17.620Z,28.17
2022-08-08T08:47:06.646Z,28.24
2022-08-08T08:49:54.526Z,28.29
2022-08-08T08:52:57.431Z,28.39
2022-08-08T08:55:49.512Z,28.43
2022-08-08T08:58:42.238Z,28.48
2022-08-08T09:01:36.943Z,28.54
2022-08-08T09:04:57.320Z,28.58
2022-08-08T09:08:12.389Z,28.61
2022-08-08T09:11:04.455Z,28.67
2022-08-08T09:13:51.477Z,28.74
2022-08-08T09:16:40.658Z,28.79
2022-08-08T09:21:56.802Z,28.82
2022-08-08T09:22:47.668Z,28.85
2022-08-08T09:25:54.541Z,28.90
2022-08-08T09:28:44.771Z,28.92
2022-08-08T09:31:57.607Z,29.04
2022-08-08T09:35:05.227Z,29.05
2022-08-08T09:38:01.132Z,29.05
2022-08-08T09:40:57.733Z,29.10
2022-08-08T09:44:06.342Z,29.15
2022-08-08T09:47:05.075Z,29.20
2022-08-08T09:49:51.732Z,29.30
2022-08-08T09:52:56.648Z,29.36
2022-08-08T09:56:04.216Z,29.44
2022-08-08T09:59:50.422Z,29.51
2022-08-08T10:02:34.766Z,29.58
2022-08-08T10:05:26.063Z,29.66
2022-08-08T10:08:12.309Z,29.68
2022-08-08T10:11:00.009Z,29.77
2022-08-08T10:13:57.397Z,29.78
2022-08-08T10:16:44.017Z,29.89
2022-08-08T10:19:57.363Z,29.95
2022-08-08T10:23:06.326Z,30.00
2022-08-08T10:26:00.195Z,30.10
2022-08-08T10:28:58.415Z,30.17
2022-08-08T10:32:11.251Z,30.20
2022-08-08T10:35:01.350Z,30.29
2022-08-08T10:37:59.135Z,30.33
2022-08-08T10:40:51.940Z,30.37
2022-08-08T10:43:40.457Z,30.46
2022-08-08T10:46:31.817Z,30.52
2022-08-08T10:50:00.403Z,30.58
2022-08-08T10:52:31.115Z,30.66
2022-08-08T10:55:41.378Z,30.70
2022-08-08T10:58:28.410Z,30.74
2022-08-08T11:01:15.831Z,30.81
2022-08-08T11:04:04.425Z,30.85
2022-08-08T11:07:02.383Z,30.87
2022-08-08T11:09:48.679Z,30.96
2022-08-08T11:12:44.238Z,31.01
2022-08-08T11:15:34.429Z,31.05
2022-08-08T11:18:39.886Z,31.15
2022-08-08T11:21:34.869Z,31.19
2022-08-08T11:24:21.178Z,31.27
2022-08-08T11:27:19.384Z,31.33
2022-08-08T11:30:20.171Z,31.40
2022-08-08T11:33:12.464Z,31.45
2022-08-08T11:35:58.813Z,31.49
2022-08-08T11:38:54.250Z,31.56
2022-08-08T11:41:43.245Z,31.64
2022-08-08T11:44:29.405Z,31.71
2022-08-08T11:47:17.164Z,31.78
2022-08-08T11:50:09.934Z,31.82
2022-08-08T11:52:58.466Z,31.87
2022-08-08T11:55:50.116Z,31.88
2022-08-08T11:58:36.185Z,31.78
2022-08-08T12:01:32.702Z,31.67
2022-08-08T12:04:24.835Z,31.63
2022-08-08T12:07:17.213Z,31.64
2022-08-08T12:10:15.833Z,31.73
2022-08-08T12:13:09.429Z,31.88
2022-08-08T12:16:08.454Z,31.96
2022-08-08T12:18:56.296Z,32.03
2022-08-08T12:22:00.086Z,32.05
2022-08-08T12:24:51.485Z,32.12
2022-08-08T12:27:49.081Z,32.18
2022-08-08T12:30:36.108Z,32.31
2022-08-08T12:33:37.051Z,32.54
2022-08-08T12:36:24.250Z,32.76
2022-08-08T12:40:01.043Z,32.88
2022-08-08T12:42:48.223Z,33.07
2022-08-08T12:46:00.097Z,33.35
2022-08-08T12:49:20.726Z,33.58
2022-08-08T12:52:01.493Z,33.81
2022-08-08T12:54:47.667Z,34.00
2022-08-08T12:57:49.933Z,34.29
2022-08-08T13:00:43.763Z,34.57
2022-08-08T13:03:34.213Z,34.88
2022-08-08T13:06:20.853Z,35.30
2022-08-08T13:09:10.552Z,35.70
2022-08-08T13:12:34.209Z,35.97
2022-08-08T13:15:06.677Z,35.96
2022-08-08T13:18:08.672Z,35.97
2022-08-08T13:20:58.299Z,36.11
2022-08-08T13:23:46.534Z,36.12
2022-08-08T13:26:33.694Z,36.39
2022-08-08T13:29:21.031Z,37.08
2022-08-08T13:32:07.763Z,37.90
2022-08-08T13:34:58.867Z,38.39
2022-08-08T13:38:05.101Z,38.33
2022-08-08T13:40:52.505Z,38.24
2022-08-08T13:43:38.674Z,38.48
2022-08-08T13:46:26.300Z,38.60
2022-08-08T13:50:37.316Z,39.16
2022-08-08T13:52:37.997Z,40.21
2022-08-08T13:55:29.266Z,41.41
2022-08-08T13:58:22.446Z,42.67
2022-08-08T14:01:19.134Z,43.73
2022-08-08T14:04:21.331Z,44.83
2022-08-08T14:07:09.165Z,45.57
2022-08-08T14:10:10.092Z,46.28
2022-08-08T14:12:58.359Z,46.04
2022-08-08T14:15:50.649Z,45.15
2022-08-08T14:18:51.886Z,44.43
2022-08-08T14:21:48.937Z,44.50
2022-08-08T14:24:38.397Z,44.90
2022-08-08T14:27:40.520Z,45.44
2022-08-08T14:30:34.401Z,45.44
2022-08-08T14:33:34.238Z,45.26
2022-08-08T14:36:33.546Z,45.17
2022-08-08T14:39:24.846Z,45.32
2022-08-08T14:42:11.115Z,45.97
2022-08-08T14:45:00.264Z,46.74
2022-08-08T14:48:00.590Z,47.63
2022-08-08T14:50:47.291Z,48.07
2022-08-08T14:53:55.143Z,48.67
2022-08-08T14:56:42.692Z,49.24
2022-08-08T14:59:43.630Z,49.73
2022-08-08T15:02:31.450Z,50.21
2022-08-08T15:05:19.249Z,50.63
2022-08-08T15:08:12.589Z,50.91
2022-08-08T15:11:11.385Z,50.49
2022-08-08T15:14:01.743Z,49.34
2022-08-08T15:16:49.114Z,47.82
2022-08-08T15:19:35.603Z,46.24
2022-08-08T15:22:23.365Z,44.86
2022-08-08T15:25:17.801Z,43.63
2022-08-08T15:28:33.291Z,42.54
2022-08-08T15:31:55.527Z,42.61
2022-08-08T15:34:31.405Z,43.38
2022-08-08T15:37:19.151Z,44.25
2022-08-08T15:40:06.614Z,44.70
2022-08-08T15:42:57.933Z,44.71
2022-08-08T15:45:45.822Z,44.27
2022-08-08T15:48:36.280Z,43.48
2022-08-08T15:51:22.909Z,42.57
2022-08-08T15:54:37.314Z,41.66
2022-08-08T15:57:23.005Z,40.74
2022-08-08T16:00:27.555Z,39.94
2022-08-08T16:03:14.168Z,39.23
2022-08-08T16:06:03.535Z,38.65
2022-08-08T16:12:59.985Z,38.12
2022-08-08T16:13:02.192Z,37.59
2022-08-08T16:15:09.325Z,37.15
2022-08-08T16:18:11.185Z,36.75
2022-08-08T16:21:01.140Z,36.44
2022-08-08T16:23:46.995Z,36.12
2022-08-08T16:26:36.916Z,35.86
2022-08-08T16:29:36.980Z,35.60
2022-08-08T16:32:32.223Z,35.37
2022-08-08T16:35:18.929Z,35.17
2022-08-08T16:38:16.237Z,34.97
2022-08-08T16:41:18.406Z,34.79
2022-08-08T16:44:09.650Z,34.58
2022-08-08T16:47:39.855Z,34.38
2022-08-08T16:50:31.702Z,34.15
2022-08-08T16:55:23.175Z,33.92
2022-08-08T16:56:27.270Z,33.71
2022-08-08T16:59:13.019Z,33.48
2022-08-08T17:01:58.775Z,33.34
2022-08-08T17:04:46.086Z,33.17
2022-08-08T17:07:32.070Z,33.01
2022-08-08T17:10:19.371Z,32.85
2022-08-08T17:13:06.609Z,32.75
2022-08-08T17:15:53.576Z,32.62
2022-08-08T17:18:39.509Z,32.50
2022-08-08T17:21:26.370Z,32.41
2022-08-08T17:24:26.815Z,32.28
2022-08-08T17:27:14.513Z,32.22
2022-08-08T17:30:08.284Z,32.13
2022-08-08T17:34:37.214Z,32.04
2022-08-08T17:36:12.447Z,31.93
2022-08-08T17:39:45.872Z,31.88
2022-08-08T17:42:19.584Z,31.81
2022-08-08T17:45:06.713Z,31.72
2022-08-08T17:48:03.771Z,31.66
2022-08-08T17:50:49.714Z,31.60
2022-08-08T17:53:43.723Z,31.54
2022-08-08T17:56:32.102Z,31.48
2022-08-08T17:59:19.321Z,31.41
2022-08-08T18:02:11.394Z,31.37
2022-08-08T18:05:05.247Z,31.30
2022-08-08T18:08:03.093Z,31.27
2022-08-08T18:10:53.982Z,31.20
2022-08-08T18:13:42.048Z,31.11
2022-08-08T18:16:31.223Z,31.11
2022-08-08T18:19:22.980Z,31.06
2022-08-08T18:22:37.476Z,30.98
2022-08-08T18:25:16.541Z,30.93
2022-08-08T18:28:02.599Z,30.79
2022-08-08T18:30:49.044Z,30.83
2022-08-08T18:34:10.616Z,30.80
2022-08-08T18:36:40.617Z,30.75
2022-08-08T18:39:30.911Z,30.69
2022-08-08T18:42:18.550Z,30.66
2022-08-08T18:45:09.347Z,30.61
2022-08-08T18:48:14.163Z,30.58
2022-08-08T18:51:07.381Z,30.55
2022-08-08T18:54:13.755Z,30.45
2022-08-08T18:57:11.045Z,30.45
2022-08-08T19:00:00.656Z,30.42
2022-08-08T19:02:55.318Z,30.38
2022-08-08T19:05:45.089Z,30.36
2022-08-08T19:08:32.864Z,30.32
2022-08-08T19:11:22.592Z,30.30
2022-08-08T19:14:08.807Z,30.26
2022-08-08T19:16:58.465Z,30.21
2022-08-08T19:20:02.300Z,30.23
2022-08-08T19:22:49.392Z,30.21
2022-08-08T19:26:20.060Z,30.18
2022-08-08T19:28:42.204Z,30.16
2022-08-08T19:31:31.464Z,30.14
2022-08-08T19:34:30.260Z,30.14
2022-08-08T19:37:43.322Z,30.11
2022-08-08T19:41:02.099Z,30.09
2022-08-08T19:44:26.708Z,30.02
2022-08-08T19:47:34.300Z,29.99
2022-08-08T19:50:20.275Z,29.97
2022-08-08T19:53:21.930Z,29.98
2022-08-08T19:56:40.622Z,29.96
2022-08-08T19:59:46.552Z,29.90
2022-08-08T20:02:35.395Z,29.88
2022-08-08T20:06:14.743Z,29.88
2022-08-08T20:08:32.080Z,29.83
2022-08-08T20:11:21.807Z,29.79
2022-08-08T20:14:12.410Z,29.74
2022-08-08T20:17:28.044Z,29.68
2022-08-08T20:20:20.482Z,29.69
2022-08-08T20:23:12.505Z,29.66
2022-08-08T20:26:03.225Z,29.63
2022-08-08T20:28:50.873Z,29.59
2022-08-08T20:32:02.546Z,29.55
2022-08-08T20:34:47.931Z,29.52
2022-08-08T20:37:53.242Z,29.48
2022-08-08T20:40:41.962Z,29.45
2022-08-08T20:43:43.501Z,29.39
2022-08-08T20:46:35.180Z,29.34
2022-08-08T20:49:23.962Z,29.36
2022-08-08T20:52:18.912Z,29.29
2022-08-08T20:55:07.675Z,29.23
2022-08-08T20:58:03.025Z,29.18
2022-08-08T21:00:49.143Z,29.14
2022-08-08T21:03:55.675Z,29.05
2022-08-08T21:06:52.871Z,29.07
2022-08-08T21:09:48.448Z,29.06
2022-08-08T21:12:52.878Z,29.03
2022-08-08T21:16:05.910Z,28.98
2022-08-08T21:18:47.788Z,28.98
2022-08-08T21:21:41.082Z,28.94
2022-08-08T21:24:30.325Z,28.91
2022-08-08T21:28:05.427Z,28.87
2022-08-08T21:30:24.543Z,28.84
2022-08-08T21:33:11.590Z,28.78
2022-08-08T21:36:17.732Z,28.75
2022-08-08T21:39:04.706Z,28.71
2022-08-08T21:41:59.340Z,28.62
2022-08-08T21:44:58.049Z,28.66
2022-08-08T21:48:00.706Z,28.64
2022-08-08T21:50:50.527Z,28.61
2022-08-08T21:54:33.128Z,28.60
2022-08-08T21:56:46.336Z,28.52
2022-08-08T22:00:01.541Z,28.55
2022-08-08T22:02:39.363Z,28.51
2022-08-08T22:05:27.061Z,28.42
2022-08-08T22:08:16.032Z,28.44
2022-08-08T22:11:51.367Z,28.41
2022-08-08T22:14:16.113Z,28.38
2022-08-08T22:17:01.930Z,28.30
2022-08-08T22:20:11.108Z,28.31
2022-08-08T22:22:54.047Z,28.25
2022-08-08T22:26:20.039Z,28.23
2022-08-08T22:29:15.002Z,28.21
2022-08-08T22:31:58.223Z,28.19
2022-08-08T22:34:51.006Z,28.16
2022-08-08T22:37:53.319Z,28.15
2022-08-08T22:40:41.051Z,28.13
2022-08-08T22:43:27.457Z,28.15
2022-08-08T22:46:18.426Z,28.13
2022-08-08T22:49:04.172Z,28.12
2022-08-08T22:51:54.081Z,28.10
2022-08-08T22:54:56.199Z,28.09
2022-08-08T22:57:49.483Z,28.08
2022-08-08T23:00:36.570Z,28.03
2022-08-08T23:03:25.181Z,27.98
2022-08-08T23:06:31.457Z,27.98
2022-08-08T23:09:19.034Z,27.88
2022-08-08T23:12:39.447Z,27.90
2022-08-08T23:16:40.949Z,27.87
2022-08-08T23:18:31.827Z,27.83
2022-08-08T23:21:17.478Z,27.85
2022-08-08T23:24:07.331Z,27.82
2022-08-08T23:26:55.996Z,27.78
2022-08-08T23:29:42.546Z,27.78
2022-08-08T23:32:44.212Z,27.76
2022-08-08T23:35:34.473Z,27.76
2022-08-08T23:38:43.952Z,27.73
2022-08-08T23:41:30.924Z,27.66
2022-08-08T23:44:35.100Z,27.65
2022-08-08T23:49:04.475Z,27.59
2022-08-08T23:50:31.356Z,27.55
2022-08-08T23:53:17.304Z,27.56
2022-08-08T23:56:32.298Z,27.54
2022-08-08T23:59:21.454Z,27.52
